Time;durP1;ratioP1;P1;durP2;ratioP2;P2;SDS_P1;SDS_P2;PMS_P1;PMS_P2;Temp;Humidity;BMP_temperature;BMP_pressure;BME280_temperature;BME280_humidity;BME280_pressure;Samples;Min_cycle;Max_cycle;Signal;HPM_P1;HPM_P2
2021/03/27 00:01:55;;;;;;;;;;;;;;;23.65;35.13;100258.28;4482640;32;34021;-53
2021/03/27 00:04:26;;;;;;;;;;;;;;;23.65;35.16;100258.28;4479381;31;34331;-55
2021/03/27 00:06:54;;;;;;;;;;;;;;;23.62;35.22;100256.78;4484169;32;34930;-53
2021/03/27 00:09:30;;;;;;;;;;;;;;;23.62;35.19;100255.94;4482845;32;34616;-50
2021/03/27 00:11:59;;;;;;;;;;;;;;;23.61;35.19;100255.09;4484296;32;32791;-53
2021/03/27 00:14:37;;;;;;;;;;;;;;;23.60;35.27;100260.78;4483072;32;33705;-49
2021/03/27 00:17:24;;;;;;;;;;;;;;;23.59;35.25;100256.38;4482925;32;34215;-50
2021/03/27 00:20:00;;;;;;;;;;;;;;;23.58;35.23;100257.41;4482857;32;34114;-56
2021/03/27 00:22:32;;;;;;;;;;;;;;;23.56;35.26;100254.94;4481468;31;32828;-53
2021/03/27 00:25:02;;;;;;;;;;;;;;;23.55;35.36;100250.53;4475142;32;34077;-51
2021/03/27 00:27:31;;;;;;;;;;;;;;;23.55;35.30;100244.22;4485409;31;34083;-52
2021/03/27 00:30:00;;;;;;;;;;;;;;;23.53;35.30;100249.91;4473743;31;32560;-50
2021/03/27 00:32:30;;;;;;;;;;;;;;;23.54;35.33;100254.28;4474375;32;32910;-56
2021/03/27 00:35:01;;;;;;;;;;;;;;;23.53;35.41;100249.91;4481845;32;34171;-56
2021/03/27 00:37:28;;;;;;;;;;;;;;;23.52;35.42;100248.22;4467945;32;34126;-51
2021/03/27 00:40:05;;;;;;;;;;;;;;;23.52;35.49;100247.41;4469589;32;33733;-53
2021/03/27 00:42:37;;;;;;;;;;;;;;;23.50;35.49;100247.63;4479692;31;33249;-52
2021/03/27 00:45:06;;;;;;;;;;;;;;;23.50;35.52;100249.50;4476361;32;34191;-55
2021/03/27 00:47:51;;;;;;;;;;;;;;;23.49;35.54;100248.66;4471168;32;34900;-50
2021/03/27 00:50:22;;;;;;;;;;;;;;;23.49;35.58;100250.53;4482522;32;34927;-52
2021/03/27 00:52:49;;;;;;;;;;;;;;;23.47;35.60;100239.88;4484032;32;33105;-52
2021/03/27 00:55:24;;;;;;;;;;;;;;;23.48;35.59;100246.16;4482615;32;34822;-54
2021/03/27 00:57:53;;;;;;;;;;;;;;;23.46;35.59;100240.94;4482653;32;34126;-52
2021/03/27 01:00:35;;;;;;;;;;;;;;;23.46;35.61;100238.22;4483892;32;34051;-55
2021/03/27 01:03:09;;;;;;;;;;;;;;;23.46;35.64;100242.81;4482074;32;32668;-57
2021/03/27 01:05:39;;;;;;;;;;;;;;;23.43;35.63;100239.47;4470646;32;34259;-53
2021/03/27 01:08:10;;;;;;;;;;;;;;;23.43;35.67;100242.19;4476444;32;33764;-58
2021/03/27 01:10:46;;;;;;;;;;;;;;;23.43;35.74;100250.37;4482734;32;32773;-56
2021/03/27 01:13:21;;;;;;;;;;;;;;;23.42;35.77;100245.97;4482703;32;33226;-50
2021/03/27 01:15:50;;;;;;;;;;;;;;;23.41;35.73;100241.59;4482202;32;33643;-54
2021/03/27 01:18:22;;;;;;;;;;;;;;;23.40;35.77;100241.78;4481664;32;33569;-48
2021/03/27 01:20:51;;;;;;;;;;;;;;;23.39;35.81;100235.50;4478056;31;34110;-54
2021/03/27 01:23:18;;;;;;;;;;;;;;;23.40;35.86;100236.34;4483146;32;33828;-49
2021/03/27 01:25:45;;;;;;;;;;;;;;;23.40;35.82;100233.59;4482077;32;34678;-51
2021/03/27 01:28:29;;;;;;;;;;;;;;;23.38;35.89;100231.13;4471485;32;34784;-54
2021/03/27 01:30:56;;;;;;;;;;;;;;;23.39;35.88;100223.78;4481698;31;34751;-56
2021/03/27 01:33:29;;;;;;;;;;;;;;;23.37;35.91;100229.44;4483173;32;33432;-58
2021/03/27 01:36:12;;;;;;;;;;;;;;;23.37;35.90;100228.62;4483358;32;35218;-57
2021/03/27 01:38:41;;;;;;;;;;;;;;;23.36;35.91;100232.38;4483101;32;34096;-53
2021/03/27 01:41:13;;;;;;;;;;;;;;;23.34;35.94;100229.88;4482590;32;34955;-57
2021/03/27 01:43:59;;;;;;;;;;;;;;;23.34;35.95;100227.16;4481493;32;33899;-53
2021/03/27 01:46:37;;;;;;;;;;;;;;;23.34;36.03;100226.31;4483801;31;34048;-53
2021/03/27 01:49:07;;;;;;;;;;;;;;;23.32;36.01;100221.09;4474684;31;33716;-52
2021/03/27 01:51:53;;;;;;;;;;;;;;;23.32;36.03;100222.97;4490400;31;34798;-49
2021/03/27 01:54:21;;;;;;;;;;;;;;;23.32;35.99;100229.25;4483000;32;33691;-51
2021/03/27 01:57:07;;;;;;;;;;;;;;;23.30;35.97;100223.19;4470075;32;34184;-51
2021/03/27 01:59:35;;;;;;;;;;;;;;;23.30;35.98;100225.06;4485408;32;34888;-50
2021/03/27 02:02:16;;;;;;;;;;;;;;;23.29;36.02;100231.56;4483772;32;34024;-51
2021/03/27 02:04:46;;;;;;;;;;;;;;;23.28;36.03;100219.84;4478863;32;33947;-51
2021/03/27 02:07:19;;;;;;;;;;;;;;;23.28;36.03;100224.47;4477611;31;32969;-56
2021/03/27 02:09:48;;;;;;;;;;;;;;;23.29;36.06;100217.97;4479649;32;34199;-58
2021/03/27 02:12:33;;;;;;;;;;;;;;;23.27;36.10;100229.06;4477200;32;34157;-56
2021/03/27 02:15:06;;;;;;;;;;;;;;;23.27;36.06;100220.03;4487102;31;33257;-49
2021/03/27 02:17:33;;;;;;;;;;;;;;;23.26;36.13;100210.22;4470958;32;35024;-51
2021/03/27 02:20:01;;;;;;;;;;;;;;;23.26;36.14;100221.09;4485149;32;34911;-55
2021/03/27 02:22:34;;;;;;;;;;;;;;;23.26;36.14;100215.66;4485034;32;34210;-51
2021/03/27 02:25:21;;;;;;;;;;;;;;;23.26;36.12;100218.38;4482820;32;32938;-50
2021/03/27 02:28:06;;;;;;;;;;;;;;;23.24;36.15;100218.59;4460485;32;34043;-52
2021/03/27 02:30:38;;;;;;;;;;;;;;;23.24;36.24;100215.06;4484909;32;35050;-53
2021/03/27 02:33:08;;;;;;;;;;;;;;;23.22;36.15;100215.25;4480249;32;33843;-54
2021/03/27 02:35:55;;;;;;;;;;;;;;;23.22;36.16;100215.25;4485024;32;34256;-54
2021/03/27 02:38:24;;;;;;;;;;;;;;;23.22;36.24;100203.53;4484903;32;34105;-49
2021/03/27 02:40:54;;;;;;;;;;;;;;;23.22;36.26;100219.84;4484920;32;34148;-51
2021/03/27 02:43:24;;;;;;;;;;;;;;;23.21;36.30;100212.75;4483972;32;34512;-50
2021/03/27 02:45:59;;;;;;;;;;;;;;;23.20;36.22;100214.63;4483226;31;34156;-55
2021/03/27 02:48:30;;;;;;;;;;;;;;;23.20;36.27;100214.63;4484102;32;34264;-55
2021/03/27 02:51:06;;;;;;;;;;;;;;;23.19;36.34;100215.69;4480072;31;34817;-52
2021/03/27 02:53:38;;;;;;;;;;;;;;;23.18;36.31;100227.63;4484839;31;34053;-54
2021/03/27 02:56:17;;;;;;;;;;;;;;;23.19;36.32;100223.03;4483520;32;33235;-50
2021/03/27 02:58:48;;;;;;;;;;;;;;;23.19;36.31;100223.03;4472181;32;34207;-50
2021/03/27 03:01:19;;;;;;;;;;;;;;;23.17;36.29;100226.81;4484764;32;35018;-49
2021/03/27 03:04:10;;;;;;;;;;;;;;;23.16;36.28;100222.38;4470502;32;34866;-52
2021/03/27 03:06:56;;;;;;;;;;;;;;;23.16;36.40;100210.66;4452056;32;33374;-49
2021/03/27 03:09:37;;;;;;;;;;;;;;;23.16;36.35;100216.94;4482911;31;34056;-51
2021/03/27 03:12:13;;;;;;;;;;;;;;;23.15;36.46;100215.28;4483567;32;34984;-54
2021/03/27 03:14:57;;;;;;;;;;;;;;;23.15;36.37;100209.00;4475852;32;34147;-54
2021/03/27 03:17:40;;;;;;;;;;;;;;;23.15;36.43;100209.00;4470533;32;33348;-58
2021/03/27 03:20:11;;;;;;;;;;;;;;;23.13;36.38;100205.66;4484654;32;33796;-53
2021/03/27 03:22:55;;;;;;;;;;;;;;;23.13;36.44;100208.41;4484854;32;34530;-51
2021/03/27 03:25:24;;;;;;;;;;;;;;;23.13;36.39;100211.94;4469143;32;34371;-56
2021/03/27 03:27:56;;;;;;;;;;;;;;;23.12;36.33;100212.97;4483445;32;33150;-55
2021/03/27 03:30:23;;;;;;;;;;;;;;;23.12;36.33;100204.81;4484492;32;33826;-51
2021/03/27 03:32:50;;;;;;;;;;;;;;;23.12;36.38;100212.16;4484938;32;34859;-56
2021/03/27 03:35:36;;;;;;;;;;;;;;;23.12;36.40;100212.16;4484646;32;34044;-57
2021/03/27 03:38:13;;;;;;;;;;;;;;;23.12;36.45;100214.88;4484747;32;34352;-58
2021/03/27 03:41:05;;;;;;;;;;;;;;;23.10;36.38;100206.09;4483059;32;34921;-53
2021/03/27 03:43:51;;;;;;;;;;;;;;;23.10;36.41;100206.09;4483288;32;34114;-58
2021/03/27 03:46:27;;;;;;;;;;;;;;;23.10;36.47;100197.94;4484454;32;34044;-51
2021/03/27 03:49:02;;;;;;;;;;;;;;;23.08;36.39;100203.59;4484562;32;33342;-57
2021/03/27 03:51:38;;;;;;;;;;;;;;;23.08;36.50;100198.16;4483103;32;34078;-56
2021/03/27 03:54:22;;;;;;;;;;;;;;;23.08;36.46;100192.72;4484448;32;35189;-55
2021/03/27 03:57:08;;;;;;;;;;;;;;;23.07;36.50;100199.19;4483062;32;35543;-56
2021/03/27 03:59:56;;;;;;;;;;;;;;;23.06;36.50;100196.69;4484510;32;33214;-56
2021/03/27 04:02:28;;;;;;;;;;;;;;;23.06;36.45;100194.78;4484315;32;34675;-57
2021/03/27 04:04:58;;;;;;;;;;;;;;;23.05;36.53;100195.84;4483066;32;34214;-58
2021/03/27 04:07:58;;;;;;;;;;;;;;;23.05;36.54;100193.13;4484151;32;34162;-56
2021/03/27 04:10:26;;;;;;;;;;;;;;;23.06;36.58;100199.41;4484334;32;33314;-55
2021/03/27 04:13:01;;;;;;;;;;;;;;;23.04;36.47;100194.19;4483151;32;34150;-54
2021/03/27 04:15:39;;;;;;;;;;;;;;;23.05;36.62;100195.00;4483036;32;34688;-57
2021/03/27 04:18:06;;;;;;;;;;;;;;;23.03;36.52;100191.66;4482219;32;34998;-57
2021/03/27 04:20:48;;;;;;;;;;;;;;;23.03;36.51;100195.22;4484358;32;34205;-55
2021/03/27 04:23:26;;;;;;;;;;;;;;;23.03;36.53;100197.94;4484289;32;34783;-58
2021/03/27 04:25:53;;;;;;;;;;;;;;;23.03;36.59;100197.09;4482993;32;34094;-53
2021/03/27 04:28:38;;;;;;;;;;;;;;;23.02;36.60;100204.44;4483993;32;34110;-56
2021/03/27 04:31:05;;;;;;;;;;;;;;;23.02;36.55;100204.44;4484292;32;34724;-54
2021/03/27 04:33:51;;;;;;;;;;;;;;;23.02;36.59;100203.59;4484207;32;34945;-53
2021/03/27 04:36:20;;;;;;;;;;;;;;;23.02;36.60;100206.31;4484013;32;34854;-58
2021/03/27 04:38:53;;;;;;;;;;;;;;;23.00;36.69;100201.09;4482980;32;34170;-55
2021/03/27 04:41:20;;;;;;;;;;;;;;;23.01;36.59;100212.81;4483841;32;33269;-56
2021/03/27 04:43:50;;;;;;;;;;;;;;;23.01;36.60;100216.37;4484012;32;34775;-54
2021/03/27 04:46:22;;;;;;;;;;;;;;;23.02;36.73;100211.75;4482594;32;34864;-54
2021/03/27 04:48:58;;;;;;;;;;;;;;;23.01;36.65;100220.97;4482531;32;34051;-53
2021/03/27 04:51:38;;;;;;;;;;;;;;;23.00;36.73;100217.44;4482512;32;33328;-50
2021/03/27 04:54:14;;;;;;;;;;;;;;;23.00;36.71;100222.88;4483939;32;34797;-53
2021/03/27 04:56:51;;;;;;;;;;;;;;;23.00;36.77;100227.47;4483736;32;34529;-55
2021/03/27 04:59:36;;;;;;;;;;;;;;;23.00;36.75;100230.19;4482650;32;33998;-55
2021/03/27 05:02:05;;;;;;;;;;;;;;;23.00;36.81;100230.19;4483467;31;33305;-58
2021/03/27 05:04:35;;;;;;;;;;;;;;;22.98;36.71;100221.41;4482449;32;33605;-53
2021/03/27 05:07:10;;;;;;;;;;;;;;;22.98;36.78;100227.66;4482177;32;34079;-56
2021/03/27 05:09:38;;;;;;;;;;;;;;;22.98;36.63;100230.41;4482339;32;34863;-56
2021/03/27 05:12:09;;;;;;;;;;;;;;;22.98;36.75;100230.41;4478037;32;33598;-56
2021/03/27 05:15:09;;;;;;;;;;;;;;;22.98;36.73;100238.56;4477875;31;34061;-54
2021/03/27 05:17:42;;;;;;;;;;;;;;;22.97;36.72;100226.00;4433386;32;34037;-50
2021/03/27 05:20:22;;;;;;;;;;;;;;;22.97;36.66;100227.91;4475677;32;33805;-55
2021/03/27 05:22:52;;;;;;;;;;;;;;;22.96;36.75;100229.78;4483283;32;33232;-50
2021/03/27 05:25:21;;;;;;;;;;;;;;;22.95;36.67;100225.41;4483429;32;34190;-51
2021/03/27 05:28:01;;;;;;;;;;;;;;;22.95;36.78;100227.28;4483240;32;34881;-52
2021/03/27 05:30:38;;;;;;;;;;;;;;;22.95;36.76;100238.19;4483075;32;33813;-50
2021/03/27 05:33:24;;;;;;;;;;;;;;;22.95;36.76;100246.34;4473915;32;33256;-52
2021/03/27 05:35:54;;;;;;;;;;;;;;;22.94;36.75;100240.03;4484949;32;34122;-53
2021/03/27 05:38:33;;;;;;;;;;;;;;;22.94;36.80;100241.91;4471199;32;34041;-55
2021/03/27 05:41:19;;;;;;;;;;;;;;;22.92;36.77;100240.25;4485038;32;34008;-52
2021/03/27 05:43:52;;;;;;;;;;;;;;;22.94;36.82;100236.47;4485354;32;33216;-57
2021/03/27 05:46:28;;;;;;;;;;;;;;;22.91;36.81;100227.69;4483497;31;34172;-56
2021/03/27 05:49:04;;;;;;;;;;;;;;;22.92;36.85;100228.53;4484314;32;34484;-53
2021/03/27 05:52:00;;;;;;;;;;;;;;;22.92;36.86;100236.69;4490083;31;34011;-51
2021/03/27 05:54:30;;;;;;;;;;;;;;;22.91;36.79;100232.31;4486554;31;32880;-53
2021/03/27 05:56:57;;;;;;;;;;;;;;;22.90;36.79;100227.94;4484876;32;34763;-51
2021/03/27 05:59:49;;;;;;;;;;;;;;;22.91;36.90;100235.03;4485120;32;34125;-53
2021/03/27 06:02:25;;;;;;;;;;;;;;;22.91;36.86;100233.16;4483815;32;34341;-51
2021/03/27 06:04:52;;;;;;;;;;;;;;;22.89;36.87;100232.50;4484555;32;33538;-53
2021/03/27 06:07:19;;;;;;;;;;;;;;;22.89;36.76;100237.94;4484834;32;34883;-54
2021/03/27 06:09:46;;;;;;;;;;;;;;;22.90;36.74;100234.19;4485049;32;34083;-50
2021/03/27 06:12:17;;;;;;;;;;;;;;;22.91;36.76;100232.31;4484864;32;34249;-52
2021/03/27 06:14:44;;;;;;;;;;;;;;;22.91;36.74;100237.75;4483831;32;34002;-55
2021/03/27 06:17:13;;;;;;;;;;;;;;;22.90;36.90;100234.19;4481539;31;34886;-50
2021/03/27 06:19:47;;;;;;;;;;;;;;;22.90;36.88;100239.66;4485741;31;33805;-50
2021/03/27 06:22:17;;;;;;;;;;;;;;;22.90;36.98;100236.09;4483667;32;34520;-51
2021/03/27 06:25:03;;;;;;;;;;;;;;;22.89;36.98;100232.50;4481850;32;33968;-49
2021/03/27 06:27:35;;;;;;;;;;;;;;;22.90;36.82;100236.09;4484820;32;33952;-53
2021/03/27 06:30:09;;;;;;;;;;;;;;;22.89;36.90;100227.06;4484801;32;35006;-52
2021/03/27 06:32:39;;;;;;;;;;;;;;;22.89;37.04;100227.06;4483426;32;34105;-49
2021/03/27 06:35:14;;;;;;;;;;;;;;;22.90;36.81;100219.75;4484865;32;33385;-48
2021/03/27 06:37:50;;;;;;;;;;;;;;;22.90;36.75;100225.22;4483678;32;34164;-55
2021/03/27 06:40:36;;;;;;;;;;;;;;;22.89;36.81;100226.22;4485270;32;34497;-54
2021/03/27 06:43:21;;;;;;;;;;;;;;;22.89;36.81;100226.22;4484122;32;34178;-55
2021/03/27 06:45:48;;;;;;;;;;;;;;;22.88;36.93;100225.38;4485019;32;32997;-52
2021/03/27 06:48:34;;;;;;;;;;;;;;;22.88;36.95;100228.09;4484941;32;34283;-51
2021/03/27 06:51:17;;;;;;;;;;;;;;;22.88;36.92;100225.38;4485012;32;34046;-51
2021/03/27 06:54:02;;;;;;;;;;;;;;;22.88;36.97;100221.81;4494094;31;34350;-55
2021/03/27 06:56:50;;;;;;;;;;;;;;;22.87;37.03;100218.25;4484890;32;34253;-55
2021/03/27 06:59:34;;;;;;;;;;;;;;;22.87;36.98;100220.16;4478303;32;33873;-51
2021/03/27 07:02:01;;;;;;;;;;;;;;;22.86;37.04;100222.03;4479450;32;34174;-54
2021/03/27 07:04:28;;;;;;;;;;;;;;;22.87;37.12;100226.41;4484766;32;34209;-51
2021/03/27 07:07:13;;;;;;;;;;;;;;;22.88;36.95;100216.37;4484743;32;32992;-51
2021/03/27 07:09:40;;;;;;;;;;;;;;;22.88;37.02;100222.66;4484745;32;34068;-49
2021/03/27 07:12:16;;;;;;;;;;;;;;;22.88;37.07;100219.91;4484998;32;34843;-52
2021/03/27 07:14:46;;;;;;;;;;;;;;;22.88;37.04;100200.03;4484642;32;34431;-52
2021/03/27 07:17:31;;;;;;;;;;;;;;;22.88;36.96;100200.03;4484852;32;33251;-51
2021/03/27 07:20:02;;;;;;;;;;;;;;;22.88;37.02;100221.81;4484418;32;34761;-52
2021/03/27 07:22:48;;;;;;;;;;;;;;;22.87;36.94;100220.97;4484550;32;34168;-52
2021/03/27 07:25:21;;;;;;;;;;;;;;;22.88;36.90;100221.81;4483338;32;34110;-54
2021/03/27 07:28:06;;;;;;;;;;;;;;;22.88;36.93;100222.66;4483526;32;33360;-53
2021/03/27 07:30:43;;;;;;;;;;;;;;;22.88;37.05;100219.91;4484740;32;34654;-52
2021/03/27 07:33:22;;;;;;;;;;;;;;;22.86;37.01;100219.31;4483391;32;35643;-52
2021/03/27 07:35:59;;;;;;;;;;;;;;;22.87;36.99;100215.53;4484360;32;34091;-53
2021/03/27 07:38:32;;;;;;;;;;;;;;;22.87;36.94;100222.88;4484948;32;33021;-49
2021/03/27 07:41:17;;;;;;;;;;;;;;;22.87;36.92;100228.31;4484389;32;34813;-48
2021/03/27 07:43:50;;;;;;;;;;;;;;;22.86;37.07;100230.19;4484522;32;34161;-54
2021/03/27 07:46:32;;;;;;;;;;;;;;;22.86;37.14;100227.47;4484287;32;34979;-51
2021/03/27 07:49:18;;;;;;;;;;;;;;;22.86;36.98;100223.91;4469129;32;34145;-55
2021/03/27 07:52:00;;;;;;;;;;;;;;;22.85;36.97;100225.81;4468813;32;34132;-55
2021/03/27 07:54:27;;;;;;;;;;;;;;;22.86;36.97;100223.91;4466538;32;34900;-50
2021/03/27 07:57:12;;;;;;;;;;;;;;;22.86;37.00;100240.25;4468650;32;34114;-49
2021/03/27 07:59:55;;;;;;;;;;;;;;;22.86;37.03;100234.81;4468650;32;33289;-54
2021/03/27 08:02:32;;;;;;;;;;;;;;;22.86;36.96;100238.34;4467690;32;33746;-53
2021/03/27 08:04:59;;;;;;;;;;;;;;;22.86;37.26;100242.97;4468680;32;33763;-50
2021/03/27 08:07:36;;;;;;;;;;;;;;;22.86;37.10;100234.81;4468460;32;34575;-52
2021/03/27 08:10:18;;;;;;;;;;;;;;;22.87;37.02;100237.31;4467485;32;32892;-51
2021/03/27 08:12:48;;;;;;;;;;;;;;;22.87;37.16;100240.03;4467557;32;34459;-52
2021/03/27 08:15:27;;;;;;;;;;;;;;;22.85;37.20;100230.41;4468609;32;34359;-54
2021/03/27 08:17:56;;;;;;;;;;;;;;;22.87;37.17;100234.59;4468617;32;33774;-54
2021/03/27 08:20:38;;;;;;;;;;;;;;;22.89;36.99;100231.66;4467327;32;33980;-51
2021/03/27 08:23:14;;;;;;;;;;;;;;;22.89;36.33;100226.22;4468544;32;34169;-49
2021/03/27 08:26:04;;;;;;;;;;;;;;;22.87;36.30;100237.31;4467327;32;34129;-50
2021/03/27 08:28:50;;;;;;;;;;;;;;;22.87;35.95;100231.88;4460819;32;33943;-55
2021/03/27 08:31:22;;;;;;;;;;;;;;;22.86;36.14;100232.91;4468698;32;34061;-54
2021/03/27 08:33:52;;;;;;;;;;;;;;;22.83;36.13;100237.94;4467307;32;33712;-50
2021/03/27 08:36:22;;;;;;;;;;;;;;;22.86;35.77;100237.53;4469282;32;34160;-48
2021/03/27 08:38:55;;;;;;;;;;;;;;;22.85;35.76;100238.59;4475386;32;33555;-51
2021/03/27 08:41:37;;;;;;;;;;;;;;;22.85;35.87;100227.69;4483345;32;33010;-50
2021/03/27 08:44:07;;;;;;;;;;;;;;;22.85;35.92;100230.41;4467751;32;34625;-49
2021/03/27 08:46:53;;;;;;;;;;;;;;;22.83;36.00;100227.06;4476671;31;35041;-51
2021/03/27 08:49:26;;;;;;;;;;;;;;;22.84;35.92;100223.28;4499221;31;33744;-54
2021/03/27 08:51:59;;;;;;;;;;;;;;;22.84;35.87;100229.56;4499667;31;33954;-53
2021/03/27 08:54:44;;;;;;;;;;;;;;;22.84;35.77;100221.38;4493887;31;34210;-53
2021/03/27 08:57:41;;;;;;;;;;;;;;;22.86;35.70;100230.19;4483540;32;34093;-53
2021/03/27 09:00:10;;;;;;;;;;;;;;;22.84;35.51;100226.84;4440547;31;33945;-50
2021/03/27 09:02:37;;;;;;;;;;;;;;;22.84;35.36;100226.00;4483619;32;33347;-50
2021/03/27 09:05:04;;;;;;;;;;;;;;;22.85;34.91;100216.81;4483802;32;33910;-53
2021/03/27 09:07:43;;;;;;;;;;;;;;;22.85;34.92;100220.37;4485273;32;35042;-51
2021/03/27 09:10:19;;;;;;;;;;;;;;;22.85;35.08;100211.38;4484447;32;34698;-51
2021/03/27 09:12:52;;;;;;;;;;;;;;;22.85;35.13;100214.09;4485616;32;32914;-51
2021/03/27 09:15:38;;;;;;;;;;;;;;;22.86;35.21;100216.59;4484063;32;34812;-50
2021/03/27 09:18:23;;;;;;;;;;;;;;;22.87;35.26;100204.66;4485307;32;34223;-52
2021/03/27 09:21:10;;;;;;;;;;;;;;;22.88;35.29;100210.94;4485366;32;34809;-54
2021/03/27 09:23:55;;;;;;;;;;;;;;;22.87;35.35;100201.09;4483847;32;32925;-51
2021/03/27 09:26:32;;;;;;;;;;;;;;;22.88;35.43;100186.44;4485270;32;34168;-50
2021/03/27 09:29:02;;;;;;;;;;;;;;;22.88;35.47;100197.31;4484032;32;34875;-49
2021/03/27 09:31:35;;;;;;;;;;;;;;;22.89;35.52;100188.12;4485091;32;34342;-50
2021/03/27 09:34:04;;;;;;;;;;;;;;;22.88;35.60;100192.72;4485518;32;34260;-49
2021/03/27 09:36:42;;;;;;;;;;;;;;;22.89;35.64;100182.69;4484136;32;34108;-51
2021/03/27 09:39:12;;;;;;;;;;;;;;;22.90;35.61;100184.38;4483857;32;34181;-53
2021/03/27 09:41:46;;;;;;;;;;;;;;;22.90;35.65;100179.78;4484758;32;34808;-49
2021/03/27 09:44:32;;;;;;;;;;;;;;;22.91;35.70;100184.16;4483918;32;33986;-52
2021/03/27 09:47:22;;;;;;;;;;;;;;;22.92;35.72;100180.38;4485079;32;34143;-52
2021/03/27 09:49:59;;;;;;;;;;;;;;;22.91;35.75;100167.00;4484075;32;34156;-53
2021/03/27 09:52:26;;;;;;;;;;;;;;;22.91;35.80;100169.72;4485107;32;34106;-53
2021/03/27 09:55:21;;;;;;;;;;;;;;;22.91;35.82;100169.72;4485320;32;33438;-50
2021/03/27 09:57:56;;;;;;;;;;;;;;;22.91;35.75;100167.00;4485143;32;34041;-53
2021/03/27 10:00:42;;;;;;;;;;;;;;;22.89;35.73;100166.37;4485365;32;34185;-51
2021/03/27 10:03:15;;;;;;;;;;;;;;;22.90;35.72;100171.63;4484253;32;34031;-54
2021/03/27 10:05:47;;;;;;;;;;;;;;;22.87;35.74;100163.00;4484008;32;34593;-52
2021/03/27 10:08:14;;;;;;;;;;;;;;;22.88;35.73;100165.50;4483983;32;34891;-53
2021/03/27 10:11:01;;;;;;;;;;;;;;;22.88;35.75;100160.06;4485175;32;33692;-54
2021/03/27 10:13:37;;;;;;;;;;;;;;;22.86;35.74;100166.78;4485067;32;34792;-54
2021/03/27 10:16:05;;;;;;;;;;;;;;;22.87;35.74;100163.00;4484812;32;32974;-50
2021/03/27 10:18:34;;;;;;;;;;;;;;;22.83;35.79;100153.59;4483693;32;34231;-53
2021/03/27 10:21:02;;;;;;;;;;;;;;;22.85;35.68;100159.69;4484604;32;34094;-49
2021/03/27 10:23:34;;;;;;;;;;;;;;;22.84;35.65;100147.09;4483882;32;34342;-53
2021/03/27 10:26:08;;;;;;;;;;;;;;;22.85;35.48;100154.25;4483854;32;33195;-52
2021/03/27 10:28:37;;;;;;;;;;;;;;;22.83;35.50;100142.72;4484935;32;34184;-49
2021/03/27 10:31:06;;;;;;;;;;;;;;;22.83;35.56;100146.28;4484950;32;34213;-55
2021/03/27 10:34:06;;;;;;;;;;;;;;;22.83;35.55;100148.16;4483579;32;34690;-51
2021/03/27 10:36:47;;;;;;;;;;;;;;;22.83;35.56;100145.44;4450053;31;33934;-51
2021/03/27 10:39:18;;;;;;;;;;;;;;;22.82;35.58;100149.22;4483599;32;34943;-50
2021/03/27 10:42:06;;;;;;;;;;;;;;;22.81;35.61;100139.38;4483651;32;34954;-50
2021/03/27 10:44:42;;;;;;;;;;;;;;;22.82;35.60;100143.78;4483661;32;34725;-53
2021/03/27 10:47:28;;;;;;;;;;;;;;;22.80;35.56;100137.69;4489346;31;33400;-54
2021/03/27 10:50:04;;;;;;;;;;;;;;;22.80;35.51;100132.25;4500480;31;34828;-50
2021/03/27 10:52:34;;;;;;;;;;;;;;;22.79;35.56;100136.84;4500601;31;34117;-51
2021/03/27 10:55:19;;;;;;;;;;;;;;;22.79;35.56;100125.16;4500674;31;34730;-49
2021/03/27 10:57:55;;;;;;;;;;;;;;;22.79;35.60;100136.84;4486492;31;33441;-51
2021/03/27 11:00:40;;;;;;;;;;;;;;;22.77;35.61;100133.53;4500725;31;34948;-52
2021/03/27 11:03:13;;;;;;;;;;;;;;;22.77;35.62;100125.37;4500783;31;34825;-51
2021/03/27 11:06:00;;;;;;;;;;;;;;;22.76;35.63;100126.44;4500550;31;34591;-52
2021/03/27 11:08:45;;;;;;;;;;;;;;;22.77;35.63;100122.66;4500485;31;33425;-53
2021/03/27 11:11:14;;;;;;;;;;;;;;;22.76;35.63;100134.59;4500511;31;34024;-53
2021/03/27 11:13:41;;;;;;;;;;;;;;;22.75;35.66;100127.44;4500521;31;34084;-51
2021/03/27 11:16:11;;;;;;;;;;;;;;;22.75;35.65;100132.06;4500679;31;35085;-55
2021/03/27 11:18:43;;;;;;;;;;;;;;;22.76;35.66;100125.59;4498564;31;33668;-59
2021/03/27 11:21:28;;;;;;;;;;;;;;;22.76;35.66;100128.31;4498905;31;34471;-55
2021/03/27 11:24:01;;;;;;;;;;;;;;;22.76;35.67;100126.44;4498369;31;34898;-57
2021/03/27 11:26:40;;;;;;;;;;;;;;;22.75;35.68;100132.06;4500081;31;33669;-58
2021/03/27 11:29:27;;;;;;;;;;;;;;;22.74;35.68;100122.22;4500147;31;34086;-54
2021/03/27 11:32:12;;;;;;;;;;;;;;;22.73;35.70;100115.97;4500645;31;34802;-53
2021/03/27 11:34:48;;;;;;;;;;;;;;;22.73;35.72;100121.41;4498790;31;34213;-58
2021/03/27 11:37:18;;;;;;;;;;;;;;;22.73;35.73;100113.25;4500312;31;34527;-56
2021/03/27 11:39:49;;;;;;;;;;;;;;;22.73;35.73;100126.00;4500474;31;33984;-57
2021/03/27 11:42:27;;;;;;;;;;;;;;;22.74;35.71;100127.69;4499164;31;33716;-51
2021/03/27 11:45:13;;;;;;;;;;;;;;;22.73;35.73;100126.84;4467671;32;34101;-55
2021/03/27 11:47:40;;;;;;;;;;;;;;;22.74;35.71;100122.22;4467522;32;34085;-55
2021/03/27 11:50:13;;;;;;;;;;;;;;;22.72;35.74;100114.28;4468790;32;32820;-57
2021/03/27 11:52:50;;;;;;;;;;;;;;;22.72;35.73;100106.13;4471970;31;34956;-58
2021/03/27 11:55:30;;;;;;;;;;;;;;;22.73;35.71;100106.97;4500282;31;34030;-55
2021/03/27 11:58:00;;;;;;;;;;;;;;;22.72;35.73;100106.13;4500151;31;33617;-58
2021/03/27 12:00:48;;;;;;;;;;;;;;;22.72;35.74;100102.59;4500296;31;33271;-52
2021/03/27 12:03:17;;;;;;;;;;;;;;;22.72;35.72;100105.31;4494640;31;33699;-57
2021/03/27 12:06:02;;;;;;;;;;;;;;;22.71;35.75;100103.59;4484380;32;34976;-51
2021/03/27 12:08:36;;;;;;;;;;;;;;;22.71;35.64;100098.16;4484207;32;35188;-57
2021/03/27 12:11:29;;;;;;;;;;;;;;;22.70;35.69;100101.94;4484438;32;33567;-55
2021/03/27 12:13:58;;;;;;;;;;;;;;;22.70;35.67;100100.06;4469478;31;33509;-55
2021/03/27 12:16:26;;;;;;;;;;;;;;;22.72;35.67;100103.41;4495519;31;34295;-58
2021/03/27 12:18:59;;;;;;;;;;;;;;;22.72;35.66;100106.13;4499634;31;34054;-55
2021/03/27 12:21:29;;;;;;;;;;;;;;;22.72;35.66;100110.75;4500015;31;33213;-49
2021/03/27 12:24:02;;;;;;;;;;;;;;;22.72;35.70;100108.03;4490505;31;34131;-56
2021/03/27 12:26:39;;;;;;;;;;;;;;;22.73;35.69;100106.97;4483135;32;34072;-56
2021/03/27 12:29:09;;;;;;;;;;;;;;;22.71;35.71;100119.94;4478194;32;34215;-48
2021/03/27 12:31:48;;;;;;;;;;;;;;;22.73;35.59;100115.13;4483468;32;33295;-55
2021/03/27 12:34:20;;;;;;;;;;;;;;;22.72;35.54;100110.75;4474839;31;34062;-53
2021/03/27 12:36:53;;;;;;;;;;;;;;;22.73;35.57;100117.84;4469652;32;34879;-55
2021/03/27 12:39:20;;;;;;;;;;;;;;;22.73;35.66;100117.84;4468961;32;34826;-48
2021/03/27 12:41:47;;;;;;;;;;;;;;;22.73;35.74;100113.25;4484120;32;33208;-50
2021/03/27 12:44:22;;;;;;;;;;;;;;;22.76;35.70;100112.00;4491917;31;33709;-54
2021/03/27 12:47:01;;;;;;;;;;;;;;;22.77;35.72;100108.22;4479689;31;34066;-50
2021/03/27 12:49:45;;;;;;;;;;;;;;;22.79;35.74;100106.09;4469190;32;34868;-51
2021/03/27 12:52:33;;;;;;;;;;;;;;;22.79;35.73;100104.22;4482125;32;33348;-66
2021/03/27 12:55:03;;;;;;;;;;;;;;;22.74;35.90;100095.03;4475049;32;35505;-54
2021/03/27 12:57:57;;;;;;;;;;;;;;;22.77;35.92;100102.78;4478394;32;34976;-57
2021/03/27 13:00:42;;;;;;;;;;;;;;;22.77;35.86;100100.88;4478497;32;34545;-50
2021/03/27 13:03:09;;;;;;;;;;;;;;;22.79;35.86;100103.38;4480427;32;33064;-52
2021/03/27 13:05:35;;;;;;;;;;;;;;;22.79;35.87;100085.16;4482664;32;34524;-52
2021/03/27 13:08:08;;;;;;;;;;;;;;;22.81;35.89;100098.56;4483314;32;34200;-53
2021/03/27 13:10:35;;;;;;;;;;;;;;;22.80;36.06;100086.88;4482864;32;34978;-55
2021/03/27 13:13:11;;;;;;;;;;;;;;;22.82;36.03;100086.62;4483167;32;33207;-56
2021/03/27 13:15:51;;;;;;;;;;;;;;;22.82;36.05;100086.62;4483331;32;34502;-57
2021/03/27 13:18:36;;;;;;;;;;;;;;;22.83;36.06;100083.69;4483374;32;34095;-50
2021/03/27 13:21:20;;;;;;;;;;;;;;;22.84;36.08;100085.34;4482988;32;34851;-52